createdAt,value
2023-03-19T00:02:43.200Z,95113.88
2023-03-19T00:05:51.629Z,95115.41
2023-03-19T00:08:53.654Z,95116.88
2023-03-19T00:11:56.606Z,95126.06
2023-03-19T00:15:00.102Z,95121.09
2023-03-19T00:18:02.523Z,95120.94
2023-03-19T00:21:05.797Z,95113.16
2023-03-19T00:24:08.417Z,95107.41
2023-03-19T00:27:12.462Z,95108.13
2023-03-19T00:30:16.440Z,95115.28
2023-03-19T00:33:19.049Z,95110.53
2023-03-19T00:36:21.445Z,95112.09
2023-03-19T00:39:23.556Z,95106.66
2023-03-19T00:42:26.084Z,95112.41
2023-03-19T00:45:31.419Z,95106.34
2023-03-19T00:48:34.173Z,95115.88
2023-03-19T00:51:36.687Z,95110.53
2023-03-19T00:54:38.642Z,95117.09
2023-03-19T00:57:40.921Z,95121.28
2023-03-19T01:00:44.912Z,95115.75
2023-03-19T01:03:47.353Z,95119.34
2023-03-19T01:06:49.974Z,95121.22
2023-03-19T01:09:51.970Z,95114.81
2023-03-19T01:12:54.239Z,95117.31
2023-03-19T01:15:57.694Z,95115.66
2023-03-19T01:19:00.373Z,95117.44
2023-03-19T01:22:02.868Z,95121.34
2023-03-19T01:25:05.713Z,95118.72
2023-03-19T01:28:07.941Z,95119.63
2023-03-19T01:31:11.903Z,95116.31
2023-03-19T01:34:14.126Z,95117.13
2023-03-19T01:37:17.184Z,95105.63
2023-03-19T01:40:19.542Z,95106.38
2023-03-19T01:43:24.197Z,95106.88
2023-03-19T01:46:31.294Z,95108.47
2023-03-19T01:49:34.984Z,95112.03
2023-03-19T01:52:37.373Z,95113.06
2023-03-19T01:55:40.772Z,95109.00
2023-03-19T01:58:46.908Z,95100.06
2023-03-19T02:01:55.643Z,95108.53
2023-03-19T02:05:02.398Z,95108.16
2023-03-19T02:08:09.196Z,95111.59
2023-03-19T02:11:11.570Z,95116.22
2023-03-19T02:14:13.969Z,95113.47
2023-03-19T02:17:18.578Z,95114.34
2023-03-19T02:20:27.105Z,95120.31
2023-03-19T02:23:37.703Z,95115.19
2023-03-19T02:26:42.363Z,95117.16
2023-03-19T02:29:44.259Z,95119.22
2023-03-19T02:32:46.131Z,95115.94
2023-03-19T02:35:51.275Z,95121.50
2023-03-19T02:38:55.255Z,95118.84
2023-03-19T02:42:01.029Z,95117.31
2023-03-19T02:45:03.564Z,95110.81
2023-03-19T02:48:06.213Z,95107.81
2023-03-19T02:51:08.936Z,95111.06
2023-03-19T02:54:10.780Z,95111.53
2023-03-19T02:57:13.995Z,95118.91
2023-03-19T03:00:16.999Z,95123.06
2023-03-19T03:03:18.846Z,95125.28
2023-03-19T03:06:20.629Z,95124.19
2023-03-19T03:09:22.937Z,95133.19
2023-03-19T03:12:26.090Z,95141.16
2023-03-19T03:15:28.064Z,95141.47
2023-03-19T03:18:30.153Z,95157.84
2023-03-19T03:21:35.274Z,95152.38
2023-03-19T03:24:37.463Z,95155.41
2023-03-19T03:27:43.406Z,95154.16
2023-03-19T03:30:45.453Z,95151.47
2023-03-19T03:33:47.831Z,95146.09
2023-03-19T03:36:50.266Z,95145.34
2023-03-19T03:39:52.217Z,95139.88
2023-03-19T03:42:56.303Z,95142.72
2023-03-19T03:45:58.497Z,95142.38
2023-03-19T03:49:00.454Z,95132.53
2023-03-19T03:52:02.554Z,95129.84
2023-03-19T03:55:05.297Z,95130.88
2023-03-19T03:58:09.152Z,95132.78
2023-03-19T04:01:15.389Z,95145.63
2023-03-19T04:04:17.609Z,95152.59
2023-03-19T04:07:19.750Z,95166.66
2023-03-19T04:10:21.697Z,95176.47
2023-03-19T04:13:25.336Z,95172.88
2023-03-19T04:16:28.580Z,95173.81
2023-03-19T04:19:30.764Z,95179.66
2023-03-19T04:22:32.674Z,95181.84
2023-03-19T04:25:38.885Z,95183.38
2023-03-19T04:28:44.706Z,95184.88
2023-03-19T04:31:46.655Z,95182.41
2023-03-19T04:34:48.917Z,95186.03
2023-03-19T04:37:50.778Z,95188.34
2023-03-19T04:40:53.393Z,95190.25
2023-03-19T04:43:57.035Z,95180.19
2023-03-19T04:46:59.101Z,95182.50
2023-03-19T04:50:01.218Z,95177.38
2023-03-19T04:53:03.035Z,95183.41
2023-03-19T04:56:05.613Z,95179.63
2023-03-19T04:59:08.864Z,95182.31
2023-03-19T05:02:10.994Z,95188.09
2023-03-19T05:05:14.619Z,95182.13
2023-03-19T05:08:16.798Z,95180.53
2023-03-19T05:11:18.936Z,95187.78
2023-03-19T05:14:22.414Z,95189.50
2023-03-19T05:17:24.672Z,95198.63
2023-03-19T05:20:26.711Z,95197.59
2023-03-19T05:23:30.142Z,95211.31
2023-03-19T05:26:32.053Z,95201.91
2023-03-19T05:29:35.993Z,95203.97
2023-03-19T05:32:38.238Z,95204.50
2023-03-19T05:35:40.570Z,95206.06
2023-03-19T05:38:42.977Z,95202.00
2023-03-19T05:41:44.830Z,95212.09
2023-03-19T05:44:48.504Z,95205.34
2023-03-19T05:47:51.073Z,95205.09
2023-03-19T05:50:52.867Z,95211.31
2023-03-19T05:53:54.765Z,95231.84
2023-03-19T05:56:56.587Z,95238.56
2023-03-19T06:00:02.045Z,95240.28
2023-03-19T06:03:04.557Z,95239.41
2023-03-19T06:06:08.146Z,95246.41
2023-03-19T06:09:09.988Z,95254.06
2023-03-19T06:12:12.143Z,95258.41
2023-03-19T06:15:15.511Z,95262.53
2023-03-19T06:18:18.158Z,95267.88
2023-03-19T06:21:20.097Z,95282.19
2023-03-19T06:24:23.621Z,95279.00
2023-03-19T06:27:25.477Z,95272.09
2023-03-19T06:30:28.715Z,95272.41
2023-03-19T06:33:30.860Z,95268.50
2023-03-19T06:36:32.644Z,95264.97
2023-03-19T06:39:35.312Z,95268.78
2023-03-19T06:42:37.611Z,95270.88
2023-03-19T06:45:42.915Z,95273.59
2023-03-19T06:48:46.302Z,95277.03
2023-03-19T06:51:48.142Z,95278.69
2023-03-19T06:54:49.892Z,95274.03
2023-03-19T06:57:51.842Z,95286.38
2023-03-19T07:00:55.436Z,95287.25
2023-03-19T07:03:57.684Z,95293.94
2023-03-19T07:06:59.742Z,95288.03
2023-03-19T07:10:02.741Z,95297.47
2023-03-19T07:13:05.638Z,95296.06
2023-03-19T07:16:09.492Z,95299.31
2023-03-19T07:19:11.651Z,95302.91
2023-03-19T07:22:13.658Z,95307.69
2023-03-19T07:25:15.962Z,95305.19
2023-03-19T07:28:18.289Z,95310.41
2023-03-19T07:31:21.458Z,95305.94
2023-03-19T07:34:25.620Z,95311.25
2023-03-19T07:37:27.560Z,95306.78
2023-03-19T07:40:29.817Z,95303.94
2023-03-19T07:43:31.778Z,95309.06
2023-03-19T07:46:36.450Z,95314.59
2023-03-19T07:49:38.296Z,95319.03
2023-03-19T07:52:40.242Z,95320.28
2023-03-19T07:55:42.523Z,95319.72
2023-03-19T07:58:44.627Z,95308.72
2023-03-19T08:01:47.946Z,95309.69
2023-03-19T08:04:50.066Z,95313.34
2023-03-19T08:07:52.575Z,95312.00
2023-03-19T08:10:55.997Z,95311.41
2023-03-19T08:13:57.835Z,95321.09
2023-03-19T08:17:02.184Z,95321.22
2023-03-19T08:20:06.799Z,95325.53
2023-03-19T08:23:08.690Z,95328.13
2023-03-19T08:26:10.903Z,95325.88
2023-03-19T08:29:14.184Z,95335.22
2023-03-19T08:32:17.483Z,95341.84
2023-03-19T08:35:19.687Z,95347.22
2023-03-19T08:38:22.437Z,95335.78
2023-03-19T08:41:25.179Z,95352.09
2023-03-19T08:44:27.233Z,95345.84
2023-03-19T08:47:30.732Z,95337.84
2023-03-19T08:50:33.017Z,95339.91
2023-03-19T08:53:35.455Z,95340.34
2023-03-19T08:56:38.590Z,95340.72
2023-03-19T08:59:42.024Z,95350.38
2023-03-19T09:02:45.449Z,95339.59
2023-03-19T09:05:47.818Z,95341.16
2023-03-19T09:08:50.675Z,95345.81
2023-03-19T09:11:52.843Z,95346.56
2023-03-19T09:14:54.950Z,95359.34
2023-03-19T09:17:58.275Z,95358.56
2023-03-19T09:21:00.284Z,95358.56
2023-03-19T09:24:02.745Z,95351.56
2023-03-19T09:27:06.410Z,95346.97
2023-03-19T09:30:14.324Z,95349.31
2023-03-19T09:33:19.852Z,95352.75
2023-03-19T09:36:23.067Z,95348.16
2023-03-19T09:39:24.977Z,95354.28
2023-03-19T09:42:46.350Z,95360.84
2023-03-19T09:45:48.566Z,95357.75
2023-03-19T09:48:58.513Z,95357.41
2023-03-19T09:52:09.706Z,95364.75
2023-03-19T09:55:24.049Z,95359.72
2023-03-19T09:58:32.037Z,95358.94
2023-03-19T10:01:36.759Z,95362.41
2023-03-19T10:04:49.015Z,95359.25
2023-03-19T10:08:17.909Z,95361.16
2023-03-19T10:11:37.402Z,95357.66
2023-03-19T10:15:03.696Z,95357.63
2023-03-19T10:18:14.088Z,95366.09
2023-03-19T10:21:30.338Z,95363.75
2023-03-19T10:24:35.246Z,95359.88
2023-03-19T10:27:38.225Z,95362.28
2023-03-19T10:30:41.200Z,95374.25
2023-03-19T10:33:47.608Z,95368.78
2023-03-19T10:36:59.071Z,95383.38
2023-03-19T10:40:01.600Z,95387.28
2023-03-19T10:43:13.489Z,95374.47
2023-03-19T10:46:15.395Z,95379.09
2023-03-19T10:49:18.088Z,95380.25
2023-03-19T10:52:29.247Z,95377.16
2023-03-19T10:55:32.701Z,95378.28
2023-03-19T10:58:36.388Z,95378.34
2023-03-19T11:01:40.530Z,95373.66
2023-03-19T11:04:42.731Z,95369.75
2023-03-19T11:07:49.888Z,95366.25
2023-03-19T11:10:53.327Z,95368.56
2023-03-19T11:13:56.652Z,95366.19
2023-03-19T11:17:04.587Z,95367.38
2023-03-19T11:20:21.714Z,95358.41
2023-03-19T11:23:27.962Z,95363.28
2023-03-19T11:26:30.141Z,95370.56
2023-03-19T11:29:32.460Z,95356.97
2023-03-19T11:33:11.501Z,95360.69
2023-03-19T11:36:18.623Z,95356.38
2023-03-19T11:39:27.980Z,95356.44
2023-03-19T11:42:44.886Z,95350.59
2023-03-19T11:45:58.290Z,95352.63
2023-03-19T11:49:25.941Z,95348.75
2023-03-19T11:52:35.186Z,95342.47
2023-03-19T11:55:56.012Z,95349.06
2023-03-19T11:59:19.001Z,95341.06
2023-03-19T12:02:55.555Z,95346.22
2023-03-19T12:06:01.186Z,95343.53
2023-03-19T12:09:09.981Z,95334.78
2023-03-19T12:12:21.399Z,95341.34
2023-03-19T12:15:30.644Z,95336.28
2023-03-19T12:19:21.122Z,95352.19
2023-03-19T12:22:37.302Z,95351.47
2023-03-19T12:26:01.030Z,95358.06
2023-03-19T12:29:14.281Z,95351.50
2023-03-19T12:32:28.109Z,95362.28
2023-03-19T12:35:48.621Z,95360.78
2023-03-19T12:38:55.007Z,95364.28
2023-03-19T12:42:00.215Z,95370.16
2023-03-19T12:45:12.615Z,95362.38
2023-03-19T12:48:21.338Z,95360.47
2023-03-19T12:51:28.637Z,95357.09
2023-03-19T12:54:36.753Z,95366.38
2023-03-19T12:57:47.339Z,95364.84
2023-03-19T13:00:59.531Z,95362.19
2023-03-19T13:04:08.675Z,95361.75
2023-03-19T13:07:20.799Z,95351.72
2023-03-19T13:10:23.126Z,95347.06
2023-03-19T13:13:33.203Z,95335.81
2023-03-19T13:16:46.667Z,95341.53
2023-03-19T13:19:50.744Z,95348.00
2023-03-19T13:22:57.073Z,95348.41
2023-03-19T13:26:01.250Z,95334.44
2023-03-19T13:29:09.883Z,95336.66
2023-03-19T13:32:25.608Z,95333.47
2023-03-19T13:35:35.165Z,95344.31
2023-03-19T13:42:34.940Z,95344.22
2023-03-19T13:45:38.463Z,95346.19
2023-03-19T13:48:51.620Z,95342.78
2023-03-19T13:52:15.931Z,95347.09
2023-03-19T13:55:45.805Z,95341.69
2023-03-19T13:58:51.998Z,95335.09
2023-03-19T14:01:54.816Z,95336.75
2023-03-19T14:05:01.592Z,95331.69
2023-03-19T14:08:16.081Z,95342.31
2023-03-19T14:11:24.048Z,95339.59
2023-03-19T14:14:26.276Z,95340.72
2023-03-19T14:17:33.174Z,95336.91
2023-03-19T14:20:47.878Z,95336.13
2023-03-19T14:23:55.179Z,95328.28
2023-03-19T14:27:01.325Z,95322.50
2023-03-19T14:30:11.953Z,95324.94
2023-03-19T14:33:19.411Z,95320.28
2023-03-19T14:36:24.293Z,95325.63
2023-03-19T14:39:28.229Z,95324.84
2023-03-19T14:42:39.269Z,95319.44
2023-03-19T14:45:52.786Z,95314.75
2023-03-19T14:49:28.430Z,95324.44
2023-03-19T14:52:37.961Z,95326.00
2023-03-19T14:55:39.852Z,95325.19
2023-03-19T14:58:51.045Z,95321.69
2023-03-19T15:01:54.496Z,95327.44
2023-03-19T15:05:00.159Z,95327.41
2023-03-19T15:08:08.167Z,95326.75
2023-03-19T15:11:42.811Z,95330.63
2023-03-19T15:15:07.006Z,95330.53
2023-03-19T15:18:14.218Z,95336.28
2023-03-19T15:21:16.690Z,95327.72
2023-03-19T15:24:21.719Z,95324.13
2023-03-19T15:27:27.374Z,95328.00
2023-03-19T15:30:31.245Z,95322.69
2023-03-19T15:33:40.093Z,95316.06
2023-03-19T15:36:46.071Z,95332.75
2023-03-19T15:39:54.514Z,95325.41
2023-03-19T15:43:00.750Z,95332.47
2023-03-19T15:46:03.434Z,95334.34
2023-03-19T15:49:13.189Z,95333.22
2023-03-19T15:52:20.356Z,95330.44
2023-03-19T15:55:26.240Z,95339.34
2023-03-19T15:58:33.388Z,95336.38
2023-03-19T16:01:37.203Z,95339.47
2023-03-19T16:05:10.184Z,95331.69
2023-03-19T16:08:18.188Z,95332.47
2023-03-19T16:11:39.216Z,95332.50
2023-03-19T16:14:43.753Z,95337.88
2023-03-19T16:17:48.583Z,95338.59
2023-03-19T16:21:02.639Z,95339.41
2023-03-19T16:24:26.406Z,95353.75
2023-03-19T16:27:37.521Z,95354.53
2023-03-19T16:30:47.693Z,95349.88
2023-03-19T16:33:52.649Z,95350.69
2023-03-19T16:36:55.678Z,95354.59
2023-03-19T16:40:00.621Z,95349.16
2023-03-19T16:43:16.874Z,95361.19
2023-03-19T16:46:20.619Z,95363.13
2023-03-19T16:49:26.506Z,95355.75
2023-03-19T16:52:29.655Z,95358.53
2023-03-19T16:55:35.913Z,95367.81
2023-03-19T16:58:44.576Z,95362.38
2023-03-19T17:01:49.257Z,95367.03
2023-03-19T17:04:51.753Z,95372.44
2023-03-19T17:07:56.265Z,95370.16
2023-03-19T17:11:00.435Z,95373.28
2023-03-19T17:14:06.736Z,95379.88
2023-03-19T17:17:19.740Z,95378.34
2023-03-19T17:20:30.255Z,95379.53
2023-03-19T17:27:03.915Z,95386.16
2023-03-19T17:30:14.883Z,95393.91
2023-03-19T17:33:25.050Z,95394.72
2023-03-19T17:36:29.805Z,95392.00
2023-03-19T17:39:34.134Z,95395.13
2023-03-19T17:42:38.040Z,95394.75
2023-03-19T17:45:47.270Z,95394.00
2023-03-19T17:48:51.482Z,95405.63
2023-03-19T17:51:55.769Z,95399.09
2023-03-19T17:54:59.453Z,95402.19
2023-03-19T17:58:03.294Z,95401.81
2023-03-19T18:01:15.241Z,95399.03
2023-03-19T18:04:21.662Z,95415.25
2023-03-19T18:07:32.108Z,95413.69
2023-03-19T18:10:36.085Z,95410.84
2023-03-19T18:13:39.491Z,95411.88
2023-03-19T18:16:51.042Z,95415.66
2023-03-19T18:19:54.666Z,95412.50
2023-03-19T18:22:59.806Z,95412.78
2023-03-19T18:26:06.030Z,95404.03
2023-03-19T18:29:09.685Z,95415.59
2023-03-19T18:32:22.334Z,95413.72
2023-03-19T18:35:30.070Z,95414.78
2023-03-19T18:38:33.612Z,95416.31
2023-03-19T18:41:37.370Z,95415.47
2023-03-19T18:44:40.728Z,95412.97
2023-03-19T18:47:46.360Z,95412.84
2023-03-19T18:50:50.758Z,95420.94
2023-03-19T18:53:56.474Z,95425.28
2023-03-19T18:57:01.199Z,95423.97
2023-03-19T19:00:05.926Z,95424.94
2023-03-19T19:03:13.797Z,95431.34
2023-03-19T19:06:28.257Z,95420.06
2023-03-19T19:09:38.181Z,95424.94
2023-03-19T19:12:52.554Z,95432.16
2023-03-19T19:15:56.338Z,95428.72
2023-03-19T19:19:02.540Z,95433.94
2023-03-19T19:22:06.928Z,95423.13
2023-03-19T19:25:15.869Z,95437.44
2023-03-19T19:28:22.622Z,95435.16
2023-03-19T19:31:31.999Z,95438.50
2023-03-19T19:34:37.604Z,95436.16
2023-03-19T19:37:45.490Z,95446.25
2023-03-19T19:40:52.744Z,95433.44
2023-03-19T19:43:57.004Z,95432.47
2023-03-19T19:47:01.663Z,95441.91
2023-03-19T19:50:07.807Z,95436.59
2023-03-19T19:53:11.347Z,95433.13
2023-03-19T19:59:41.987Z,95427.31
2023-03-19T20:02:45.832Z,95440.47
2023-03-19T20:05:51.975Z,95445.81
2023-03-19T20:08:57.893Z,95441.91
2023-03-19T20:12:03.029Z,95445.84
2023-03-19T20:15:15.588Z,95452.25
2023-03-19T20:18:19.947Z,95455.06
2023-03-19T20:21:29.512Z,95453.91
2023-03-19T20:24:35.184Z,95457.50
2023-03-19T20:27:41.306Z,95464.56
2023-03-19T20:30:45.876Z,95464.47
2023-03-19T20:33:52.340Z,95468.97
2023-03-19T20:37:00.498Z,95465.81
2023-03-19T20:40:04.624Z,95471.88
2023-03-19T20:43:18.870Z,95470.50
2023-03-19T20:46:24.565Z,95477.91
2023-03-19T20:49:28.262Z,95481.72
2023-03-19T20:52:33.306Z,95480.16
2023-03-19T20:55:38.583Z,95478.56
2023-03-19T20:58:42.808Z,95488.28
2023-03-19T21:01:46.581Z,95487.22
2023-03-19T21:04:50.367Z,95483.94
2023-03-19T21:07:56.778Z,95486.63
2023-03-19T21:11:01.070Z,95485.72
2023-03-19T21:14:05.750Z,95483.75
2023-03-19T21:17:08.210Z,95476.47
2023-03-19T21:20:17.084Z,95478.91
2023-03-19T21:23:28.064Z,95486.69
2023-03-19T21:26:37.713Z,95492.06
2023-03-19T21:29:43.120Z,95492.16
2023-03-19T21:32:49.476Z,95482.34
2023-03-19T21:35:52.563Z,95482.41
2023-03-19T21:42:26.193Z,95485.97
2023-03-19T21:45:30.244Z,95491.91
2023-03-19T21:48:33.405Z,95496.59
2023-03-19T21:51:35.252Z,95494.56
2023-03-19T21:54:40.045Z,95497.25
2023-03-19T21:57:42.595Z,95499.81
2023-03-19T22:00:45.339Z,95507.25
2023-03-19T22:03:47.581Z,95504.81
2023-03-19T22:06:49.580Z,95505.31
2023-03-19T22:09:52.808Z,95504.75
2023-03-19T22:12:55.035Z,95497.06
2023-03-19T22:15:58.145Z,95511.47
2023-03-19T22:19:00.249Z,95514.31
2023-03-19T22:22:02.538Z,95505.06
2023-03-19T22:25:06.710Z,95500.22
2023-03-19T22:28:15.492Z,95501.06
2023-03-19T22:31:17.425Z,95502.44
2023-03-19T22:34:22.556Z,95508.81
2023-03-19T22:37:28.177Z,95502.47
2023-03-19T22:40:33.335Z,95504.16
2023-03-19T22:43:36.340Z,95499.28
2023-03-19T22:46:40.666Z,95500.84
2023-03-19T22:49:42.645Z,95496.78
2023-03-19T22:52:44.924Z,95503.59
2023-03-19T22:55:49.182Z,95501.59
2023-03-19T22:58:51.050Z,95502.03
2023-03-19T23:01:55.160Z,95496.41
2023-03-19T23:04:57.953Z,95501.47
2023-03-19T23:08:00.436Z,95502.91
2023-03-19T23:11:03.693Z,95506.28
2023-03-19T23:14:08.466Z,95508.75
2023-03-19T23:17:16.512Z,95506.31
2023-03-19T23:20:21.519Z,95504.19
2023-03-19T23:23:23.862Z,95510.66
2023-03-19T23:26:29.414Z,95509.94
2023-03-19T23:29:34.160Z,95512.66
2023-03-19T23:32:36.308Z,95507.44
2023-03-19T23:35:38.324Z,95508.03
2023-03-19T23:38:40.482Z,95511.09
2023-03-19T23:41:49.110Z,95516.44
2023-03-19T23:44:51.839Z,95510.78
2023-03-19T23:47:56.018Z,95507.88
2023-03-19T23:50:57.930Z,95521.09
2023-03-19T23:54:01.110Z,95523.47
2023-03-19T23:57:08.288Z,95524.38
